Time;durP1;ratioP1;P1;durP2;ratioP2;P2;SDS_P1;SDS_P2;PMS_P1;PMS_P2;Temp;Humidity;BMP_temperature;BMP_pressure;BME280_temperature;BME280_humidity;BME280_pressure;Samples;Min_cycle;Max_cycle;Signal;HPM_P1;HPM_P2
2023/06/11 00:00:45;;;;;;;0.50;0.30;;;;;;;17.67;100.00;94772.19;5113286;28;20494;-62
2023/06/11 00:03:13;;;;;;;0.40;0.30;;;;;;;17.89;100.00;94776.41;5112531;28;20538;-61
2023/06/11 00:05:42;;;;;;;0.50;0.30;;;;;;;17.99;100.00;94767.97;5113189;28;20439;-61
2023/06/11 00:08:10;;;;;;;0.40;0.30;;;;;;;17.99;100.00;94773.34;5112784;28;20980;-61
2023/06/11 00:10:39;;;;;;;0.50;0.30;;;;;;;18.11;100.00;94764.56;5112972;28;20432;-61
2023/06/11 00:13:07;;;;;;;0.60;0.60;;;;;;;18.27;100.00;94776.25;5112660;28;20440;-61
2023/06/11 00:15:36;;;;;;;0.43;0.30;;;;;;;18.37;100.00;94775.81;5112659;28;20444;-61
2023/06/11 00:18:06;;;;;;;0.60;0.43;;;;;;;18.45;100.00;94774.97;5112675;28;20518;-61
2023/06/11 00:20:41;;;;;;;0.60;0.30;;;;;;;18.55;100.00;94773.78;5112815;28;20447;-61
2023/06/11 00:23:10;;;;;;;0.40;0.30;;;;;;;18.66;100.00;94770.34;5112262;28;20471;-61
2023/06/11 00:25:38;;;;;;;0.40;0.30;;;;;;;18.76;100.00;94777.97;5112945;28;20451;-61
2023/06/11 00:28:07;;;;;;;0.50;0.30;;;;;;;17.62;100.00;94661.72;5112404;28;21047;-62
2023/06/11 00:30:37;;;;;;;0.70;0.57;;;;;;;18.33;100.00;94772.25;5111985;28;20467;-61
2023/06/11 00:33:05;;;;;;;0.40;0.30;;;;;;;18.37;100.00;94765.88;5086758;28;20436;-61
2023/06/11 00:35:34;;;;;;;1.50;1.30;;;;;;;18.42;100.00;94764.13;5112448;28;20472;-61
2023/06/11 00:38:02;;;;;;;0.50;0.50;;;;;;;18.42;100.00;94764.13;5122828;28;20436;-62
2023/06/11 00:40:30;;;;;;;0.60;0.50;;;;;;;18.47;100.00;94767.38;5120014;28;20436;-62
2023/06/11 00:42:59;;;;;;;0.40;0.30;;;;;;;18.53;100.00;94766.06;5100357;28;20468;-62
2023/06/11 00:45:27;;;;;;;0.60;0.60;;;;;;;18.37;100.00;94770.47;5112179;28;20443;-61
2023/06/11 00:47:57;;;;;;;0.60;0.30;;;;;;;17.80;100.00;94756.94;5112161;28;20554;-62
2023/06/11 00:50:25;;;;;;;0.40;0.40;;;;;;;17.65;100.00;94761.00;5112537;28;20447;-61
2023/06/11 00:52:54;;;;;;;0.40;0.30;;;;;;;17.65;100.00;94757.53;5111959;28;20463;-62
2023/06/11 00:55:22;;;;;;;0.60;0.50;;;;;;;17.52;100.00;94755.88;5111402;28;20432;-61
2023/06/11 00:57:53;;;;;;;0.60;0.50;;;;;;;17.36;100.00;94754.84;5112270;28;20493;-61
2023/06/11 01:00:21;;;;;;;0.80;0.77;;;;;;;17.10;100.00;94747.00;5111901;28;20432;-61
2023/06/11 01:02:57;;;;;;;0.90;0.50;;;;;;;17.36;100.00;94757.53;5112417;28;20807;-61
2023/06/11 01:05:31;;;;;;;0.40;0.23;;;;;;;17.65;100.00;94749.50;5111265;28;20442;-61
2023/06/11 01:08:00;;;;;;;0.90;0.90;;;;;;;17.87;100.00;94756.41;5112005;28;20486;-60
2023/06/11 01:10:29;;;;;;;0.50;0.40;;;;;;;18.08;100.00;94749.94;5112042;28;20969;-61
2023/06/11 01:12:58;;;;;;;0.67;0.60;;;;;;;18.03;100.00;94742.09;5111584;28;20967;-61
2023/06/11 01:15:27;;;;;;;0.40;0.20;;;;;;;18.09;100.00;94753.41;5112071;28;20444;-61
2023/06/11 01:18:02;;;;;;;0.50;0.40;;;;;;;18.12;100.00;94739.31;5111657;28;20471;-60
2023/06/11 01:20:38;;;;;;;0.50;0.47;;;;;;;18.28;100.00;94753.69;5111964;28;20435;-61
2023/06/11 01:23:22;;;;;;;0.50;0.40;;;;;;;18.23;100.00;94743.94;5111912;28;20492;-60
2023/06/11 01:26:23;;;;;;;0.40;0.30;;;;;;;18.16;100.00;94750.97;5111267;28;20440;-60
2023/06/11 01:28:56;;;;;;;0.50;0.40;;;;;;;17.57;100.00;94756.50;5091456;28;20449;-60
2023/06/11 01:31:29;;;;;;;0.40;0.30;;;;;;;17.54;100.00;94762.50;5111645;28;20436;-60
2023/06/11 01:33:58;;;;;;;0.63;0.53;;;;;;;17.18;100.00;94740.03;5111618;28;20482;-60
2023/06/11 01:36:29;;;;;;;0.40;0.30;;;;;;;17.01;100.00;94755.06;5111535;28;20477;-60
2023/06/11 01:38:58;;;;;;;0.50;0.47;;;;;;;17.15;100.00;94750.25;5111750;28;20492;-60
2023/06/11 01:41:27;;;;;;;0.60;0.60;;;;;;;17.23;100.00;94751.31;5101597;28;20940;-60
2023/06/11 01:43:57;;;;;;;0.70;0.50;;;;;;;17.28;100.00;94763.75;5108203;28;20436;-60
2023/06/11 01:46:26;;;;;;;0.43;0.30;;;;;;;17.52;100.00;94762.03;5111500;28;20436;-60
2023/06/11 01:48:54;;;;;;;1.47;0.80;;;;;;;17.14;100.00;94761.31;5111435;28;20578;-60
2023/06/11 01:51:22;;;;;;;0.40;0.30;;;;;;;17.13;100.00;94763.19;5111463;28;20435;-60
2023/06/11 01:53:51;;;;;;;0.50;0.50;;;;;;;17.13;100.00;94770.44;5111395;28;20443;-60
2023/06/11 01:56:19;;;;;;;1.93;1.03;;;;;;;16.98;100.00;94773.66;5111830;28;20443;-60
2023/06/11 01:58:47;;;;;;;0.40;0.30;;;;;;;17.22;100.00;94767.72;5111406;28;20848;-60
2023/06/11 02:01:20;;;;;;;0.57;0.40;;;;;;;16.91;100.00;94776.84;5111457;28;20483;-61
2023/06/11 02:03:48;;;;;;;0.50;0.40;;;;;;;17.05;100.00;94776.63;5088941;28;20432;-60
2023/06/11 02:06:17;;;;;;;0.80;0.60;;;;;;;17.06;100.00;94776.31;5111316;28;20454;-60
2023/06/11 02:08:45;;;;;;;1.00;0.30;;;;;;;17.03;100.00;94768.13;5111162;28;20479;-60
2023/06/11 02:11:13;;;;;;;0.60;0.60;;;;;;;17.04;100.00;94772.38;5111003;28;20497;-60
2023/06/11 02:13:42;;;;;;;0.70;0.60;;;;;;;16.94;100.00;94778.09;5111510;28;20440;-60
2023/06/11 02:16:10;;;;;;;0.47;0.30;;;;;;;17.05;100.00;94774.72;5111017;28;20935;-60
2023/06/11 02:18:40;;;;;;;0.50;0.30;;;;;;;17.28;100.00;94777.16;5111317;28;20442;-60
2023/06/11 02:21:08;;;;;;;0.50;0.40;;;;;;;17.09;100.00;94762.28;5111197;28;20935;-60
2023/06/11 02:23:37;;;;;;;0.60;0.40;;;;;;;17.33;100.00;94775.03;5114147;28;20442;-60
2023/06/11 02:26:05;;;;;;;0.87;0.80;;;;;;;17.02;100.00;94771.91;5114706;28;20447;-60
2023/06/11 02:28:33;;;;;;;0.50;0.30;;;;;;;17.39;100.00;94770.28;5115031;28;20471;-60
2023/06/11 02:31:02;;;;;;;0.50;0.30;;;;;;;17.61;100.00;94778.03;5114588;28;20991;-59
2023/06/11 02:33:30;;;;;;;0.50;0.50;;;;;;;17.63;100.00;94776.59;5114957;28;20781;-60
2023/06/11 02:36:00;;;;;;;0.40;0.30;;;;;;;17.43;100.00;94763.94;5114716;28;20435;-60
2023/06/11 02:38:28;;;;;;;1.10;0.60;;;;;;;17.73;100.00;94773.53;5114955;28;20478;-60
2023/06/11 02:40:57;;;;;;;0.70;0.60;;;;;;;17.77;100.00;94771.78;5114531;28;20439;-59
2023/06/11 02:43:25;;;;;;;0.40;0.30;;;;;;;17.80;100.00;94770.34;5114715;28;20439;-60
2023/06/11 02:45:53;;;;;;;0.40;0.30;;;;;;;17.74;100.00;94769.75;5114242;28;20564;-60
2023/06/11 02:48:22;;;;;;;0.97;0.70;;;;;;;17.60;100.00;94771.94;5116647;28;20471;-60
2023/06/11 02:50:50;;;;;;;0.50;0.33;;;;;;;17.63;100.00;94779.28;5091913;28;20477;-59
2023/06/11 02:53:20;;;;;;;0.40;0.30;;;;;;;17.72;100.00;94777.34;5113982;28;20523;-60
2023/06/11 02:55:48;;;;;;;0.40;0.30;;;;;;;17.78;100.00;94778.69;5114730;28;20435;-60
2023/06/11 02:58:17;;;;;;;0.50;0.30;;;;;;;17.81;100.00;94782.63;5114072;28;20479;-61
2023/06/11 03:00:45;;;;;;;0.40;0.30;;;;;;;17.60;100.00;94789.91;5114322;28;20432;-61
2023/06/11 03:03:14;;;;;;;0.60;0.60;;;;;;;17.68;100.00;94786.38;5113988;27;20446;-60
2023/06/11 03:05:42;;;;;;;0.83;0.30;;;;;;;17.61;100.00;94784.19;5114343;28;20478;-61
2023/06/11 03:08:10;;;;;;;0.50;0.50;;;;;;;17.65;100.00;94785.13;5113665;28;20468;-61
2023/06/11 03:10:40;;;;;;;0.40;0.30;;;;;;;17.59;100.00;94783.75;5114399;28;20515;-61
2023/06/11 03:13:08;;;;;;;0.97;0.97;;;;;;;17.67;100.00;94798.97;5114150;28;21001;-60
2023/06/11 03:15:37;;;;;;;0.50;0.30;;;;;;;17.52;100.00;94790.69;5114395;28;20437;-60
2023/06/11 03:18:05;;;;;;;0.87;0.77;;;;;;;17.48;100.00;94779.84;5113531;28;21016;-60
2023/06/11 03:20:34;;;;;;;0.50;0.30;;;;;;;17.53;100.00;94789.63;5113948;28;20467;-61
2023/06/11 03:23:03;;;;;;;1.17;0.50;;;;;;;17.63;100.00;94790.00;5100793;28;20440;-61
2023/06/11 03:25:32;;;;;;;0.90;0.70;;;;;;;17.24;100.00;94793.06;5114118;28;20436;-61
2023/06/11 03:28:02;;;;;;;2.00;0.93;;;;;;;17.44;100.00;94802.25;5100293;28;20494;-61
2023/06/11 03:30:31;;;;;;;0.40;0.30;;;;;;;17.65;100.00;94792.38;5113756;28;20464;-60
2023/06/11 03:32:59;;;;;;;3.63;0.60;;;;;;;17.81;100.00;94795.28;5113364;28;20447;-61
2023/06/11 03:35:27;;;;;;;0.40;0.30;;;;;;;17.97;100.00;94799.69;5112774;28;20518;-61
2023/06/11 03:37:56;;;;;;;0.40;0.30;;;;;;;17.96;100.00;94798.13;5113472;28;20443;-61
2023/06/11 03:40:24;;;;;;;0.40;0.30;;;;;;;17.67;100.00;94790.94;5113158;28;20861;-61
2023/06/11 03:42:53;;;;;;;0.50;0.40;;;;;;;17.86;100.00;94792.41;5113649;28;21081;-61
2023/06/11 03:45:22;;;;;;;0.60;0.50;;;;;;;17.70;100.00;94803.69;5113245;28;20435;-60
2023/06/11 03:47:55;;;;;;;0.80;0.60;;;;;;;17.51;100.00;94795.25;5113686;28;20990;-61
2023/06/11 03:50:24;;;;;;;0.50;0.50;;;;;;;17.35;100.00;94804.19;5113241;28;20438;-61
2023/06/11 03:52:52;;;;;;;0.47;0.30;;;;;;;17.46;100.00;94798.13;5113723;28;20428;-61
2023/06/11 03:55:21;;;;;;;0.63;0.60;;;;;;;17.62;100.00;94809.91;5113130;28;20436;-61
2023/06/11 03:57:49;;;;;;;14.43;2.27;;;;;;;17.87;100.00;94801.97;5113170;28;20805;-61
2023/06/11 04:00:18;;;;;;;0.60;0.40;;;;;;;17.69;100.00;94802.13;5113156;28;20444;-62
2023/06/11 04:02:47;;;;;;;0.60;0.50;;;;;;;17.82;100.00;94804.88;5113156;28;20988;-62
2023/06/11 04:05:16;;;;;;;0.60;0.50;;;;;;;17.42;100.00;94791.88;5086548;28;20463;-63
2023/06/11 04:07:44;;;;;;;0.50;0.30;;;;;;;17.41;100.00;94805.56;5112901;28;20561;-62
2023/06/11 04:10:14;;;;;;;0.50;0.40;;;;;;;16.61;100.00;94621.94;5112921;28;20475;-63
2023/06/11 04:12:42;;;;;;;0.40;0.30;;;;;;;17.78;100.00;94810.09;5113560;28;20509;-63
2023/06/11 04:15:12;;;;;;;0.77;0.77;;;;;;;17.56;100.00;94805.81;5086988;28;20434;-63
2023/06/11 04:17:40;;;;;;;0.90;0.43;;;;;;;17.72;100.00;94785.38;5112564;28;20940;-63
2023/06/11 04:20:11;;;;;;;0.50;0.40;;;;;;;17.89;100.00;94789.81;5113342;28;20500;-64
2023/06/11 04:22:40;;;;;;;2.93;0.40;;;;;;;18.22;100.00;94789.84;5112935;28;20505;-64
2023/06/11 04:25:11;;;;;;;1.37;0.60;;;;;;;18.38;100.00;94788.13;5112997;28;20939;-65
2023/06/11 04:27:40;;;;;;;0.50;0.30;;;;;;;18.49;100.00;94791.22;5109621;28;20436;-65
2023/06/11 04:30:09;;;;;;;0.57;0.40;;;;;;;18.50;100.00;94793.56;5102553;28;20578;-66
2023/06/11 04:32:40;;;;;;;0.87;0.63;;;;;;;18.37;100.00;94790.03;5112811;28;20500;-67
2023/06/11 04:35:10;;;;;;;0.63;0.63;;;;;;;18.54;100.00;94773.03;5112685;28;21047;-66
2023/06/11 04:37:43;;;;;;;0.50;0.33;;;;;;;18.88;100.00;94794.09;5112511;28;20438;-64
2023/06/11 04:40:11;;;;;;;0.60;0.50;;;;;;;19.08;100.00;94780.91;5112863;28;20439;-68
2023/06/11 04:42:41;;;;;;;0.50;0.40;;;;;;;18.98;100.00;94785.59;5086110;28;20440;-65
2023/06/11 04:45:10;;;;;;;0.50;0.37;;;;;;;19.02;100.00;94799.16;5112112;28;20436;-65
2023/06/11 04:47:40;;;;;;;0.40;0.30;;;;;;;18.85;100.00;94807.41;5112645;28;21206;-66
2023/06/11 04:50:10;;;;;;;1.63;0.83;;;;;;;18.58;100.00;94805.34;5112248;28;20507;-66
2023/06/11 04:52:42;;;;;;;0.97;0.97;;;;;;;18.66;100.00;94807.94;5112447;28;20442;-62
2023/06/11 04:55:11;;;;;;;1.60;0.60;;;;;;;18.64;100.00;94804.00;5111793;28;20478;-62
2023/06/11 04:57:40;;;;;;;0.67;0.40;;;;;;;18.77;100.00;94811.00;5112632;28;20478;-64
2023/06/11 05:00:10;;;;;;;0.60;0.60;;;;;;;19.35;100.00;94813.28;5122203;28;20412;-64
2023/06/11 05:02:43;;;;;;;1.33;0.57;;;;;;;19.10;100.00;94794.81;5118467;28;20465;-64
2023/06/11 05:05:14;;;;;;;0.40;0.30;;;;;;;19.61;100.00;94808.34;5112284;28;21027;-64
2023/06/11 05:07:43;;;;;;;0.50;0.40;;;;;;;19.87;100.00;94807.97;5112133;28;20497;-64
2023/06/11 05:10:11;;;;;;;3.10;1.57;;;;;;;19.45;100.00;94810.19;5111649;28;21033;-64
2023/06/11 05:12:39;;;;;;;0.50;0.40;;;;;;;19.47;100.00;94801.75;5112198;28;20984;-64
2023/06/11 05:15:09;;;;;;;1.03;0.50;;;;;;;19.29;100.00;94809.25;5112034;28;20436;-64
2023/06/11 05:17:38;;;;;;;1.23;1.13;;;;;;;19.26;100.00;94798.38;5111898;28;20432;-64
2023/06/11 05:20:09;;;;;;;0.87;0.87;;;;;;;19.69;100.00;94809.34;5112366;28;20444;-63
2023/06/11 05:22:39;;;;;;;0.53;0.53;;;;;;;19.78;100.00;94801.97;5111171;28;20443;-63
2023/06/11 05:25:08;;;;;;;0.40;0.40;;;;;;;19.53;100.00;94811.19;5112042;28;20443;-62
2023/06/11 05:27:37;;;;;;;0.77;0.77;;;;;;;19.50;100.00;94806.47;5112147;28;20482;-62
2023/06/11 05:30:07;;;;;;;0.60;0.50;;;;;;;19.78;100.00;94815.41;5111368;28;20570;-62
2023/06/11 05:32:36;;;;;;;1.63;0.67;;;;;;;20.09;100.00;94810.16;5108624;28;20424;-62
2023/06/11 05:35:05;;;;;;;0.73;0.43;;;;;;;20.08;100.00;94815.91;5102278;28;20451;-63
2023/06/11 05:37:34;;;;;;;0.40;0.30;;;;;;;20.17;100.00;94817.31;5111781;28;20436;-62
2023/06/11 05:40:04;;;;;;;0.90;0.63;;;;;;;20.57;100.00;94814.59;5111889;28;20792;-62
2023/06/11 05:42:34;;;;;;;0.97;0.97;;;;;;;21.04;100.00;94821.97;5111489;28;20530;-62
2023/06/11 05:45:03;;;;;;;0.60;0.40;;;;;;;21.10;100.00;94823.31;5111643;28;20435;-62
2023/06/11 05:47:32;;;;;;;0.50;0.47;;;;;;;20.92;100.00;94810.13;5111424;28;20440;-62
2023/06/11 05:50:00;;;;;;;0.60;0.60;;;;;;;20.90;100.00;94822.38;5111410;28;20467;-62
2023/06/11 05:52:29;;;;;;;0.60;0.50;;;;;;;20.71;100.00;94820.38;5111816;28;20440;-62
2023/06/11 05:54:57;;;;;;;1.80;0.70;;;;;;;20.89;100.00;94820.84;5111458;28;20461;-62
2023/06/11 05:57:27;;;;;;;2.60;1.23;;;;;;;21.11;100.00;94819.47;5112959;28;20435;-61
2023/06/11 05:59:56;;;;;;;1.27;1.17;;;;;;;21.23;100.00;94814.78;5115554;28;20432;-61
2023/06/11 06:02:25;;;;;;;0.70;0.70;;;;;;;21.70;100.00;94812.06;5115784;28;20492;-61
2023/06/11 06:04:57;;;;;;;0.90;0.53;;;;;;;21.77;100.00;94809.50;5116048;28;20451;-62
2023/06/11 06:07:26;;;;;;;0.60;0.60;;;;;;;21.82;100.00;94813.84;5115757;28;20478;-61
2023/06/11 06:09:54;;;;;;;1.17;1.07;;;;;;;21.66;100.00;94805.78;5115009;28;20474;-61
2023/06/11 06:12:23;;;;;;;0.57;0.57;;;;;;;21.35;100.00;94803.16;5115565;28;20440;-61
2023/06/11 06:14:52;;;;;;;0.80;0.80;;;;;;;21.35;100.00;94805.84;5115628;28;20443;-61
2023/06/11 06:17:21;;;;;;;0.73;0.57;;;;;;;21.88;100.00;94809.78;5115367;28;20451;-61
2023/06/11 06:19:49;;;;;;;0.83;0.70;;;;;;;22.01;100.00;94808.53;5114981;28;20435;-61
2023/06/11 06:22:18;;;;;;;0.87;0.87;;;;;;;22.20;100.00;94807.75;5113331;28;20439;-61
2023/06/11 06:24:46;;;;;;;1.03;0.87;;;;;;;22.03;100.00;94812.44;5112748;28;21006;-60
2023/06/11 06:27:15;;;;;;;1.27;1.17;;;;;;;21.78;100.00;94807.59;5112900;28;20458;-60
2023/06/11 06:29:43;;;;;;;0.50;0.43;;;;;;;22.28;100.00;94806.75;5112365;28;20490;-60
2023/06/11 06:32:13;;;;;;;0.50;0.50;;;;;;;22.56;96.33;94805.41;5111976;28;20472;-60
2023/06/11 06:34:41;;;;;;;3.27;1.13;;;;;;;22.50;98.90;94796.03;5113086;28;20508;-60
2023/06/11 06:37:11;;;;;;;1.30;1.20;;;;;;;22.36;100.00;94801.16;5112759;28;20435;-59
2023/06/11 06:39:40;;;;;;;1.43;0.80;;;;;;;22.34;98.86;94789.91;5112720;28;21072;-60
2023/06/11 06:42:09;;;;;;;1.30;1.30;;;;;;;22.45;98.00;94795.53;5113766;28;20492;-59
2023/06/11 06:44:37;;;;;;;0.57;0.57;;;;;;;22.65;99.45;94791.69;5114814;28;20468;-59
2023/06/11 06:47:06;;;;;;;0.87;0.87;;;;;;;23.49;97.89;94789.69;5113743;28;20488;-59
2023/06/11 06:49:38;;;;;;;0.63;0.60;;;;;;;24.06;89.70;94785.09;5114408;28;20435;-60
2023/06/11 06:52:09;;;;;;;0.80;0.80;;;;;;;23.59;90.77;94782.88;5113813;28;20489;-59
2023/06/11 06:54:37;;;;;;;2.30;1.17;;;;;;;24.12;89.48;94778.22;5113227;28;20832;-60
2023/06/11 06:57:07;;;;;;;0.60;0.60;;;;;;;24.42;83.77;94777.03;5113330;28;20436;-60
2023/06/11 06:59:35;;;;;;;0.43;0.40;;;;;;;24.61;80.91;94773.41;5114312;28;20427;-61
2023/06/11 07:02:03;;;;;;;0.50;0.37;;;;;;;24.33;82.51;94776.56;5113451;28;20432;-62
2023/06/11 07:04:38;;;;;;;0.40;0.40;;;;;;;24.72;82.65;94766.13;5113465;28;20428;-61
2023/06/11 07:07:06;;;;;;;0.73;0.60;;;;;;;24.86;82.02;94776.38;5114235;28;20496;-63
2023/06/11 07:09:35;;;;;;;1.10;1.00;;;;;;;24.54;81.46;94770.63;5113841;28;20473;-62
2023/06/11 07:12:03;;;;;;;0.40;0.30;;;;;;;24.62;82.43;94766.81;5117773;28;20435;-62
2023/06/11 07:14:32;;;;;;;0.50;0.50;;;;;;;24.64;83.45;94753.69;5127438;28;20920;-62
2023/06/11 07:17:00;;;;;;;0.40;0.30;;;;;;;24.52;82.91;94773.69;5113734;28;20951;-62
2023/06/11 07:19:28;;;;;;;1.00;0.60;;;;;;;23.90;88.54;94764.41;5111237;28;20432;-61
2023/06/11 07:21:58;;;;;;;0.63;0.60;;;;;;;23.99;90.36;94755.97;5103250;28;20538;-62
2023/06/11 07:24:26;;;;;;;0.50;0.43;;;;;;;23.96;89.92;94767.53;5113463;28;20489;-61
2023/06/11 07:26:54;;;;;;;0.50;0.50;;;;;;;23.96;90.15;94768.31;5113596;28;20438;-61
2023/06/11 07:29:23;;;;;;;0.40;0.30;;;;;;;23.97;90.58;94766.41;5113371;28;20702;-61
2023/06/11 07:31:51;;;;;;;0.40;0.30;;;;;;;23.88;91.28;94763.19;5113352;28;20516;-61
2023/06/11 07:34:20;;;;;;;0.60;0.60;;;;;;;24.17;87.78;94758.94;5112795;28;20464;-61
2023/06/11 07:36:48;;;;;;;0.40;0.30;;;;;;;24.41;86.78;94763.88;5113565;28;20876;-61
2023/06/11 07:39:18;;;;;;;0.50;0.30;;;;;;;24.75;83.63;94765.41;5112646;28;20818;-61
2023/06/11 07:41:46;;;;;;;0.50;0.40;;;;;;;24.21;83.16;94768.66;5113258;28;20474;-61
2023/06/11 07:44:14;;;;;;;1.10;1.10;;;;;;;24.03;83.45;94762.25;5113196;28;20428;-61
2023/06/11 07:46:45;;;;;;;0.40;0.30;;;;;;;24.10;84.01;94753.44;5112588;28;20440;-61
2023/06/11 07:49:13;;;;;;;0.60;0.50;;;;;;;24.45;84.43;94760.06;5113257;28;20440;-61
2023/06/11 07:51:42;;;;;;;0.90;0.40;;;;;;;24.69;83.47;94758.78;5112907;28;20475;-61
2023/06/11 07:54:11;;;;;;;0.60;0.60;;;;;;;24.50;82.31;94753.53;5112594;28;20435;-61
2023/06/11 07:56:41;;;;;;;0.40;0.40;;;;;;;24.98;80.32;94749.00;5112616;28;21004;-61
2023/06/11 07:59:10;;;;;;;0.60;0.60;;;;;;;24.77;79.94;94749.53;5112717;28;20431;-61
2023/06/11 08:01:38;;;;;;;0.50;0.40;;;;;;;24.81;82.08;94746.91;5112444;28;20464;-61
2023/06/11 08:04:06;;;;;;;1.20;0.40;;;;;;;24.99;79.65;94753.28;5112486;28;20432;-60
2023/06/11 08:06:35;;;;;;;0.40;0.30;;;;;;;25.73;76.73;94748.41;5112456;28;20435;-60
2023/06/11 08:09:04;;;;;;;0.77;0.63;;;;;;;25.73;75.31;94748.41;5112344;28;20446;-60
2023/06/11 08:11:32;;;;;;;0.67;0.67;;;;;;;25.68;75.31;94744.13;5111973;28;20475;-61
2023/06/11 08:14:02;;;;;;;0.60;0.37;;;;;;;26.06;73.62;94748.22;5112185;28;20439;-60
2023/06/11 08:16:31;;;;;;;0.40;0.40;;;;;;;26.68;70.83;94746.13;5112130;28;20460;-60
2023/06/11 08:18:59;;;;;;;1.33;0.47;;;;;;;26.76;72.71;94749.66;5112285;28;20447;-60
2023/06/11 08:21:28;;;;;;;0.80;0.80;;;;;;;26.68;70.15;94756.22;5111332;28;20428;-61
2023/06/11 08:23:57;;;;;;;0.77;0.60;;;;;;;26.78;69.51;94752.78;5111832;28;20428;-61
2023/06/11 08:26:27;;;;;;;0.40;0.30;;;;;;;27.24;67.25;94744.69;5112328;28;20863;-61
2023/06/11 08:28:57;;;;;;;0.43;0.40;;;;;;;27.20;67.91;94744.66;5111331;28;20432;-60
2023/06/11 08:31:27;;;;;;;0.40;0.40;;;;;;;27.38;68.43;94734.56;5112185;28;20528;-60
2023/06/11 08:33:55;;;;;;;0.40;0.30;;;;;;;27.02;68.39;94743.88;5112120;28;20442;-60
2023/06/11 08:36:24;;;;;;;0.40;0.30;;;;;;;27.09;69.12;94738.47;5103333;28;20436;-60
2023/06/11 08:38:52;;;;;;;0.40;0.30;;;;;;;27.20;64.45;94752.06;5107379;28;20435;-60
2023/06/11 08:41:21;;;;;;;1.03;0.40;;;;;;;27.22;61.38;94745.06;5111688;28;20993;-60
2023/06/11 08:43:49;;;;;;;0.40;0.30;;;;;;;27.34;64.23;94731.06;5111083;28;20989;-60
2023/06/11 08:46:22;;;;;;;0.40;0.40;;;;;;;27.42;64.44;94745.47;5111866;28;20436;-61
2023/06/11 08:48:59;;;;;;;0.40;0.30;;;;;;;27.63;62.99;94743.50;5111263;28;20879;-61
2023/06/11 08:51:28;;;;;;;0.63;0.40;;;;;;;27.70;63.51;94748.19;5111637;28;21047;-61
2023/06/11 08:53:58;;;;;;;0.37;0.30;;;;;;;27.44;62.02;94746.66;5111590;28;20819;-61
2023/06/11 08:56:28;;;;;;;0.50;0.37;;;;;;;27.31;60.41;94747.38;5111617;28;20440;-61
2023/06/11 08:58:57;;;;;;;0.40;0.30;;;;;;;27.91;56.68;94739.16;5085085;28;20956;-62
2023/06/11 09:04:13;;;;;;;0.50;0.30;;;;;;;28.83;50.54;94732.19;5101389;28;20437;-62
2023/06/11 09:06:50;;;;;;;0.40;0.30;;;;;;;29.08;47.56;94731.25;5108707;28;20870;-63
2023/06/11 09:09:18;;;;;;;0.37;0.27;;;;;;;28.77;48.39;94733.00;5111371;28;20439;-62
2023/06/11 09:11:47;;;;;;;0.40;0.30;;;;;;;29.01;49.28;94732.09;5111759;28;20832;-62
2023/06/11 09:14:15;;;;;;;0.60;0.53;;;;;;;27.78;48.45;94732.59;5111401;28;20505;-63
2023/06/11 09:16:45;;;;;;;0.50;0.40;;;;;;;27.88;48.46;94740.72;5111619;28;20459;-62
2023/06/11 09:19:17;;;;;;;0.67;0.40;;;;;;;28.21;48.10;94723.13;5111053;28;20432;-62
2023/06/11 09:21:53;;;;;;;0.40;0.27;;;;;;;28.28;49.17;94742.97;5111515;28;20519;-63
2023/06/11 09:24:22;;;;;;;0.73;0.70;;;;;;;28.86;48.15;94736.09;5111605;28;20473;-63
2023/06/11 09:26:53;;;;;;;0.50;0.40;;;;;;;28.37;48.95;94737.09;5116660;28;20773;-63
2023/06/11 09:29:21;;;;;;;3.43;0.53;;;;;;;28.33;50.32;94741.78;5125473;28;20893;-63
2023/06/11 09:32:01;;;;;;;0.87;0.73;;;;;;;27.88;54.79;94739.97;5114160;28;20482;-63
2023/06/11 09:34:38;;;;;;;1.23;0.80;;;;;;;27.21;56.68;94750.88;5115791;28;20427;-63
2023/06/11 09:37:10;;;;;;;1.10;1.00;;;;;;;27.35;53.44;94740.78;5115622;28;20435;-63
2023/06/11 09:39:41;;;;;;;0.70;0.70;;;;;;;27.09;52.38;94749.34;5115444;28;20436;-63
2023/06/11 09:42:23;;;;;;;0.70;0.40;;;;;;;27.43;50.73;94749.75;5115450;28;20443;-63
2023/06/11 09:44:51;;;;;;;0.50;0.40;;;;;;;27.88;52.70;94748.16;5115237;28;20439;-63
2023/06/11 09:47:20;;;;;;;0.70;0.60;;;;;;;28.07;51.94;94751.22;5115275;28;20955;-63
2023/06/11 09:49:51;;;;;;;0.50;0.40;;;;;;;28.06;52.71;94743.44;5115030;28;20435;-63
2023/06/11 09:52:20;;;;;;;0.70;0.50;;;;;;;27.32;51.61;94744.31;5115403;28;20475;-63
2023/06/11 09:54:50;;;;;;;4.10;0.53;;;;;;;27.71;51.48;94738.81;5115372;28;20435;-63
2023/06/11 09:57:19;;;;;;;0.40;0.30;;;;;;;28.86;50.99;94739.59;5115220;28;20432;-63
2023/06/11 09:59:48;;;;;;;0.40;0.30;;;;;;;28.09;50.37;94735.25;5114993;28;20469;-63
2023/06/11 10:02:17;;;;;;;0.50;0.50;;;;;;;28.39;51.06;94734.00;5115199;28;20963;-63
2023/06/11 10:04:45;;;;;;;0.70;0.60;;;;;;;28.32;48.63;94734.78;5101524;28;20437;-64
2023/06/11 10:07:16;;;;;;;1.13;0.50;;;;;;;28.02;50.11;94742.69;5115050;28;20475;-64
2023/06/11 10:09:46;;;;;;;1.63;0.37;;;;;;;28.43;49.23;94724.63;5114766;28;20436;-64
2023/06/11 10:12:16;;;;;;;0.40;0.30;;;;;;;28.31;51.01;94738.66;5114916;28;20476;-64
2023/06/11 10:14:51;;;;;;;1.00;0.80;;;;;;;28.35;48.13;94728.53;5114737;28;20863;-63
2023/06/11 10:17:22;;;;;;;0.50;0.40;;;;;;;28.70;49.55;94731.09;5115112;28;20431;-65
2023/06/11 10:19:51;;;;;;;0.73;0.73;;;;;;;28.74;49.46;94731.84;5114712;28;20428;-63
2023/06/11 10:22:33;;;;;;;0.50;0.50;;;;;;;28.02;49.90;94732.56;5115160;28;20439;-63
2023/06/11 10:25:02;;;;;;;0.63;0.63;;;;;;;27.82;50.62;94733.38;5115180;28;20436;-64
2023/06/11 10:27:37;;;;;;;0.70;0.60;;;;;;;27.54;51.70;94718.63;5114824;28;20446;-63
2023/06/11 10:30:08;;;;;;;0.40;0.30;;;;;;;28.74;53.28;94679.28;5104102;28;20848;-64
2023/06/11 10:32:49;;;;;;;2.30;0.70;;;;;;;28.17;50.88;94715.00;5111741;28;20554;-64
2023/06/11 10:35:23;;;;;;;1.17;0.43;;;;;;;29.51;52.84;94721.56;5114695;27;20435;-63
2023/06/11 10:38:03;;;;;;;1.03;0.47;;;;;;;30.37;50.92;94719.50;5114813;28;20872;-63
2023/06/11 10:40:36;;;;;;;0.60;0.60;;;;;;;29.41;50.97;94720.47;5114650;28;20459;-63
2023/06/11 10:43:16;;;;;;;6.30;1.70;;;;;;;29.44;55.37;94716.94;5113508;28;20435;-64
2023/06/11 10:45:44;;;;;;;0.60;0.50;;;;;;;30.26;52.17;94711.41;5114431;28;20431;-64
2023/06/11 10:48:27;;;;;;;0.57;0.40;;;;;;;30.65;49.03;94708.97;5114057;28;20435;-62
2023/06/11 10:51:00;;;;;;;0.57;0.37;;;;;;;30.39;50.14;94698.78;5090966;28;20447;-64
2023/06/11 10:53:40;;;;;;;3.90;0.40;;;;;;;30.75;48.85;94696.31;5113765;28;20479;-65
2023/06/11 10:56:09;;;;;;;0.63;0.60;;;;;;;30.44;50.05;94697.53;5114060;28;20467;-64
2023/06/11 10:58:38;;;;;;;0.60;0.30;;;;;;;30.35;46.67;94692.59;5114065;28;20841;-64
2023/06/11 11:01:08;;;;;;;0.90;0.60;;;;;;;29.74;46.16;94696.38;5114214;28;20434;-64
2023/06/11 11:03:39;;;;;;;0.70;0.50;;;;;;;30.22;47.46;94699.75;5113640;28;20423;-65
2023/06/11 11:06:08;;;;;;;0.77;0.47;;;;;;;30.72;47.78;94683.47;5114175;28;20797;-65
2023/06/11 11:08:38;;;;;;;3.27;1.00;;;;;;;29.42;46.01;94691.22;5113732;28;20794;-65
2023/06/11 11:11:07;;;;;;;0.57;0.57;;;;;;;28.98;49.92;94694.69;5111675;28;20435;-64
2023/06/11 11:13:36;;;;;;;0.70;0.40;;;;;;;29.74;50.80;94691.69;5113727;28;20855;-65
2023/06/11 11:16:04;;;;;;;0.40;0.40;;;;;;;30.09;50.29;94694.03;5112986;28;20443;-64
2023/06/11 11:18:34;;;;;;;0.70;0.37;;;;;;;30.55;48.70;94689.97;5113451;28;20474;-65
2023/06/11 11:21:03;;;;;;;1.27;0.70;;;;;;;29.73;47.85;94692.84;5113787;28;20431;-65
2023/06/11 11:23:32;;;;;;;0.63;0.63;;;;;;;29.46;48.99;94703.66;5113813;28;20984;-65
2023/06/11 11:26:03;;;;;;;0.43;0.40;;;;;;;30.93;47.71;94694.13;5113171;28;20492;-64
2023/06/11 11:28:32;;;;;;;0.83;0.40;;;;;;;31.23;44.34;94668.63;5113566;28;20447;-64
2023/06/11 11:31:04;;;;;;;1.53;0.40;;;;;;;32.34;44.08;94688.13;5108830;28;20464;-65
2023/06/11 11:33:34;;;;;;;0.40;0.40;;;;;;;31.00;43.84;94691.28;5104578;28;20508;-66
2023/06/11 11:36:04;;;;;;;1.03;1.03;;;;;;;30.66;45.26;94679.66;5113129;28;20500;-67
2023/06/11 11:38:37;;;;;;;0.63;0.63;;;;;;;29.41;49.14;94679.53;5113086;28;20434;-67
2023/06/11 11:41:10;;;;;;;7.20;1.40;;;;;;;29.42;50.27;94688.50;5113165;28;20450;-66
2023/06/11 11:43:40;;;;;;;0.80;0.67;;;;;;;29.81;49.17;94677.97;5114981;28;20431;-66